sensor_id;sensor_type;location;lat;lon;timestamp;temperature;humidity
7143;DHT22;3613;48.902;9.204;2022-11-18T00:02:05;8.30;99.90
7143;DHT22;3613;48.902;9.204;2022-11-18T00:04:31;8.40;99.90
7143;DHT22;3613;48.902;9.204;2022-11-18T00:06:57;8.40;99.90
7143;DHT22;3613;48.902;9.204;2022-11-18T00:09:22;8.40;99.90
7143;DHT22;3613;48.902;9.204;2022-11-18T00:11:48;8.40;99.90
7143;DHT22;3613;48.902;9.204;2022-11-18T00:14:32;8.40;99.90
7143;DHT22;3613;48.902;9.204;2022-11-18T00:17:02;8.40;99.90
7143;DHT22;3613;48.902;9.204;2022-11-18T00:19:36;8.40;99.90
7143;DHT22;3613;48.902;9.204;2022-11-18T00:22:03;8.40;99.90
7143;DHT22;3613;48.902;9.204;2022-11-18T00:24:29;8.50;99.90
7143;DHT22;3613;48.902;9.204;2022-11-18T00:26:55;8.40;99.90
7143;DHT22;3613;48.902;9.204;2022-11-18T00:29:24;8.40;99.90
7143;DHT22;3613;48.902;9.204;2022-11-18T00:31:54;8.40;99.90
7143;DHT22;3613;48.902;9.204;2022-11-18T00:34:23;8.50;99.90
7143;DHT22;3613;48.902;9.204;2022-11-18T00:36:49;8.40;99.90
7143;DHT22;3613;48.902;9.204;2022-11-18T00:39:17;8.50;99.90
7143;DHT22;3613;48.902;9.204;2022-11-18T00:41:43;8.50;99.90
7143;DHT22;3613;48.902;9.204;2022-11-18T00:44:27;9.60;99.90
7143;DHT22;3613;48.902;9.204;2022-11-18T00:46:53;8.50;99.90
7143;DHT22;3613;48.902;9.204;2022-11-18T00:49:18;8.40;99.90
7143;DHT22;3613;48.902;9.204;2022-11-18T00:51:46;8.40;99.90
7143;DHT22;3613;48.902;9.204;2022-11-18T00:54:12;8.20;99.90
7143;DHT22;3613;48.902;9.204;2022-11-18T00:56:40;10.80;99.90
7143;DHT22;3613;48.902;9.204;2022-11-18T00:59:08;8.20;99.90
7143;DHT22;3613;48.902;9.204;2022-11-18T01:01:33;8.20;99.90
7143;DHT22;3613;48.902;9.204;2022-11-18T01:04:02;8.20;99.90
7143;DHT22;3613;48.902;9.204;2022-11-18T01:06:28;8.20;99.90
7143;DHT22;3613;48.902;9.204;2022-11-18T01:08:56;8.20;99.90
7143;DHT22;3613;48.902;9.204;2022-11-18T01:11:21;8.20;99.90
7143;DHT22;3613;48.902;9.204;2022-11-18T01:14:06;8.20;99.90
7143;DHT22;3613;48.902;9.204;2022-11-18T01:16:31;9.60;99.90
7143;DHT22;3613;48.902;9.204;2022-11-18T01:18:57;8.20;99.90
7143;DHT22;3613;48.902;9.204;2022-11-18T01:21:24;8.20;99.90
7143;DHT22;3613;48.902;9.204;2022-11-18T01:23:53;8.20;99.90
7143;DHT22;3613;48.902;9.204;2022-11-18T01:26:23;8.30;99.90
7143;DHT22;3613;48.902;9.204;2022-11-18T01:28:49;8.20;99.90
7143;DHT22;3613;48.902;9.204;2022-11-18T01:31:17;8.20;99.90
7143;DHT22;3613;48.902;9.204;2022-11-18T01:33:43;8.20;99.90
7143;DHT22;3613;48.902;9.204;2022-11-18T01:36:17;8.40;99.90
7143;DHT22;3613;48.902;9.204;2022-11-18T01:38:42;8.20;99.90
7143;DHT22;3613;48.902;9.204;2022-11-18T01:41:08;8.30;99.90
7143;DHT22;3613;48.902;9.204;2022-11-18T01:46:50;8.30;99.90
7143;DHT22;3613;48.902;9.204;2022-11-18T01:49:16;8.30;99.90
7143;DHT22;3613;48.902;9.204;2022-11-18T01:51:50;8.30;99.90
7143;DHT22;3613;48.902;9.204;2022-11-18T01:54:24;8.30;99.90
7143;DHT22;3613;48.902;9.204;2022-11-18T01:56:56;8.30;99.90
7143;DHT22;3613;48.902;9.204;2022-11-18T01:59:30;8.30;99.90
7143;DHT22;3613;48.902;9.204;2022-11-18T02:02:02;8.30;99.90
7143;DHT22;3613;48.902;9.204;2022-11-18T02:04:30;8.20;99.90
7143;DHT22;3613;48.902;9.204;2022-11-18T02:06:58;8.20;99.90
7143;DHT22;3613;48.902;9.204;2022-11-18T02:09:26;8.20;99.90
7143;DHT22;3613;48.902;9.204;2022-11-18T02:11:52;8.20;99.90
7143;DHT22;3613;48.902;9.204;2022-11-18T02:19:56;8.30;99.90
7143;DHT22;3613;48.902;9.204;2022-11-18T02:31:06;8.20;99.90
7143;DHT22;3613;48.902;9.204;2022-11-18T02:34:28;8.30;99.90
7143;DHT22;3613;48.902;9.204;2022-11-18T02:38:58;8.30;99.90
7143;DHT22;3613;48.902;9.204;2022-11-18T02:41:30;8.30;99.90
7143;DHT22;3613;48.902;9.204;2022-11-18T02:44:07;8.30;99.90
7143;DHT22;3613;48.902;9.204;2022-11-18T02:46:35;8.30;99.90
7143;DHT22;3613;48.902;9.204;2022-11-18T02:49:11;8.20;99.90
7143;DHT22;3613;48.902;9.204;2022-11-18T02:51:42;8.20;99.90
7143;DHT22;3613;48.902;9.204;2022-11-18T02:54:10;8.20;99.90
7143;DHT22;3613;48.902;9.204;2022-11-18T02:56:40;8.20;99.90
7143;DHT22;3613;48.902;9.204;2022-11-18T02:59:06;8.20;99.90
7143;DHT22;3613;48.902;9.204;2022-11-18T03:01:35;8.30;99.90
7143;DHT22;3613;48.902;9.204;2022-11-18T03:04:01;8.30;99.90
7143;DHT22;3613;48.902;9.204;2022-11-18T03:06:58;8.20;99.90
7143;DHT22;3613;48.902;9.204;2022-11-18T03:17:46;8.20;99.90
7143;DHT22;3613;48.902;9.204;2022-11-18T03:20:28;8.20;99.90
7143;DHT22;3613;48.902;9.204;2022-11-18T03:23:15;8.20;99.90
7143;DHT22;3613;48.902;9.204;2022-11-18T03:26:06;8.20;99.90
7143;DHT22;3613;48.902;9.204;2022-11-18T03:28:39;8.20;99.90
7143;DHT22;3613;48.902;9.204;2022-11-18T03:31:35;8.20;99.90
7143;DHT22;3613;48.902;9.204;2022-11-18T03:37:09;8.20;99.90
7143;DHT22;3613;48.902;9.204;2022-11-18T03:39:39;8.10;99.90
7143;DHT22;3613;48.902;9.204;2022-11-18T03:42:42;8.10;99.90
7143;DHT22;3613;48.902;9.204;2022-11-18T03:47:41;8.00;99.90
7143;DHT22;3613;48.902;9.204;2022-11-18T03:50:19;8.00;99.90
7143;DHT22;3613;48.902;9.204;2022-11-18T03:52:48;8.00;99.90
7143;DHT22;3613;48.902;9.204;2022-11-18T03:55:23;8.00;99.90
7143;DHT22;3613;48.902;9.204;2022-11-18T04:00:45;7.90;99.90
7143;DHT22;3613;48.902;9.204;2022-11-18T04:03:12;7.90;99.90
7143;DHT22;3613;48.902;9.204;2022-11-18T04:05:42;7.80;99.90
7143;DHT22;3613;48.902;9.204;2022-11-18T04:08:29;7.80;99.90
7143;DHT22;3613;48.902;9.204;2022-11-18T04:11:01;7.80;99.90
7143;DHT22;3613;48.902;9.204;2022-11-18T04:13:33;7.70;99.90
7143;DHT22;3613;48.902;9.204;2022-11-18T04:15:59;7.70;99.90
7143;DHT22;3613;48.902;9.204;2022-11-18T04:18:27;7.60;99.90
7143;DHT22;3613;48.902;9.204;2022-11-18T04:20:53;7.60;99.90
7143;DHT22;3613;48.902;9.204;2022-11-18T04:23:18;7.50;99.90
7143;DHT22;3613;48.902;9.204;2022-11-18T04:25:44;7.60;99.90
7143;DHT22;3613;48.902;9.204;2022-11-18T04:28:10;7.60;99.90
7143;DHT22;3613;48.902;9.204;2022-11-18T04:30:38;7.60;99.90
7143;DHT22;3613;48.902;9.204;2022-11-18T04:33:03;7.60;99.90
7143;DHT22;3613;48.902;9.204;2022-11-18T04:35:31;7.60;99.90
7143;DHT22;3613;48.902;9.204;2022-11-18T04:37:57;7.60;99.90
7143;DHT22;3613;48.902;9.204;2022-11-18T04:40:22;7.60;99.90
7143;DHT22;3613;48.902;9.204;2022-11-18T04:42:48;7.60;99.90
7143;DHT22;3613;48.902;9.204;2022-11-18T04:45:14;7.60;99.90
7143;DHT22;3613;48.902;9.204;2022-11-18T04:47:42;7.60;99.90
7143;DHT22;3613;48.902;9.204;2022-11-18T04:50:08;7.60;99.90
7143;DHT22;3613;48.902;9.204;2022-11-18T04:52:33;7.60;99.90
7143;DHT22;3613;48.902;9.204;2022-11-18T04:54:59;7.60;99.90
7143;DHT22;3613;48.902;9.204;2022-11-18T04:57:25;7.50;99.90
7143;DHT22;3613;48.902;9.204;2022-11-18T04:59:50;7.50;99.90
7143;DHT22;3613;48.902;9.204;2022-11-18T05:02:18;7.50;99.90
7143;DHT22;3613;48.902;9.204;2022-11-18T05:04:46;7.50;99.90
7143;DHT22;3613;48.902;9.204;2022-11-18T05:07:15;7.50;99.90
7143;DHT22;3613;48.902;9.204;2022-11-18T05:09:41;7.40;99.90
7143;DHT22;3613;48.902;9.204;2022-11-18T05:12:12;7.50;99.90
7143;DHT22;3613;48.902;9.204;2022-11-18T05:14:56;7.40;99.90
7143;DHT22;3613;48.902;9.204;2022-11-18T05:17:22;7.40;99.90
7143;DHT22;3613;48.902;9.204;2022-11-18T05:19:47;7.40;99.90
7143;DHT22;3613;48.902;9.204;2022-11-18T05:22:14;7.40;99.90
7143;DHT22;3613;48.902;9.204;2022-11-18T05:24:40;7.40;99.90
7143;DHT22;3613;48.902;9.204;2022-11-18T05:27:08;7.40;99.90
7143;DHT22;3613;48.902;9.204;2022-11-18T05:29:38;7.70;99.90
7143;DHT22;3613;48.902;9.204;2022-11-18T05:32:04;7.40;99.90
7143;DHT22;3613;48.902;9.204;2022-11-18T05:34:29;7.40;99.90
7143;DHT22;3613;48.902;9.204;2022-11-18T05:36:55;7.40;99.90
7143;DHT22;3613;48.902;9.204;2022-11-18T05:39:21;7.40;99.90
7143;DHT22;3613;48.902;9.204;2022-11-18T05:41:46;7.50;99.90
7143;DHT22;3613;48.902;9.204;2022-11-18T05:44:30;7.40;99.90
7143;DHT22;3613;48.902;9.204;2022-11-18T05:46:56;7.40;99.90
7143;DHT22;3613;48.902;9.204;2022-11-18T05:49:22;7.40;99.90
7143;DHT22;3613;48.902;9.204;2022-11-18T05:51:48;7.40;99.90
7143;DHT22;3613;48.902;9.204;2022-11-18T05:54:18;7.40;99.90
7143;DHT22;3613;48.902;9.204;2022-11-18T05:56:44;7.40;99.90
7143;DHT22;3613;48.902;9.204;2022-11-18T05:59:12;7.30;99.90
7143;DHT22;3613;48.902;9.204;2022-11-18T06:02:10;7.30;99.90
7143;DHT22;3613;48.902;9.204;2022-11-18T06:04:44;7.30;99.90
7143;DHT22;3613;48.902;9.204;2022-11-18T06:07:20;7.40;99.90
7143;DHT22;3613;48.902;9.204;2022-11-18T06:09:52;7.40;99.90
7143;DHT22;3613;48.902;9.204;2022-11-18T06:12:23;7.40;99.90
7143;DHT22;3613;48.902;9.204;2022-11-18T06:14:56;7.30;99.90
7143;DHT22;3613;48.902;9.204;2022-11-18T06:17:28;7.30;99.90
7143;DHT22;3613;48.902;9.204;2022-11-18T06:19:56;7.20;99.90
7143;DHT22;3613;48.902;9.204;2022-11-18T06:22:22;7.20;99.90
7143;DHT22;3613;48.902;9.204;2022-11-18T06:24:48;7.20;99.90
7143;DHT22;3613;48.902;9.204;2022-11-18T06:27:14;7.30;99.90
7143;DHT22;3613;48.902;9.204;2022-11-18T06:29:40;7.20;99.90
7143;DHT22;3613;48.902;9.204;2022-11-18T06:32:06;7.20;99.90
7143;DHT22;3613;48.902;9.204;2022-11-18T06:34:31;7.20;99.90
7143;DHT22;3613;48.902;9.204;2022-11-18T06:36:59;7.20;99.90
7143;DHT22;3613;48.902;9.204;2022-11-18T06:39:27;7.20;99.90
7143;DHT22;3613;48.902;9.204;2022-11-18T06:41:53;7.20;99.90
7143;DHT22;3613;48.902;9.204;2022-11-18T06:44:19;7.30;99.90
7143;DHT22;3613;48.902;9.204;2022-11-18T06:46:47;7.20;99.90
7143;DHT22;3613;48.902;9.204;2022-11-18T06:49:25;7.30;99.90
7143;DHT22;3613;48.902;9.204;2022-11-18T06:51:53;7.30;99.90
7143;DHT22;3613;48.902;9.204;2022-11-18T06:54:22;7.30;99.90
7143;DHT22;3613;48.902;9.204;2022-11-18T06:56:48;7.30;99.90
7143;DHT22;3613;48.902;9.204;2022-11-18T06:59:16;7.30;99.90
7143;DHT22;3613;48.902;9.204;2022-11-18T07:01:47;7.30;99.90
7143;DHT22;3613;48.902;9.204;2022-11-18T07:04:13;7.30;99.90
7143;DHT22;3613;48.902;9.204;2022-11-18T07:06:41;7.30;99.90
7143;DHT22;3613;48.902;9.204;2022-11-18T07:09:07;7.40;99.90
7143;DHT22;3613;48.902;9.204;2022-11-18T07:11:35;7.40;99.90
7143;DHT22;3613;48.902;9.204;2022-11-18T07:14:02;7.50;99.90
7143;DHT22;3613;48.902;9.204;2022-11-18T07:16:32;7.50;99.90
7143;DHT22;3613;48.902;9.204;2022-11-18T07:18:58;7.50;99.90
7143;DHT22;3613;48.902;9.204;2022-11-18T07:21:26;7.60;99.90
7143;DHT22;3613;48.902;9.204;2022-11-18T07:23:52;7.70;99.90
7143;DHT22;3613;48.902;9.204;2022-11-18T07:26:18;7.60;99.90
7143;DHT22;3613;48.902;9.204;2022-11-18T07:28:44;7.70;99.90
7143;DHT22;3613;48.902;9.204;2022-11-18T07:31:12;8.30;99.90
7143;DHT22;3613;48.902;9.204;2022-11-18T07:33:39;7.60;99.90
7143;DHT22;3613;48.902;9.204;2022-11-18T07:38:40;7.60;99.90
7143;DHT22;3613;48.902;9.204;2022-11-18T07:41:08;7.70;99.90
7143;DHT22;3613;48.902;9.204;2022-11-18T07:43:35;7.60;99.90
7143;DHT22;3613;48.902;9.204;2022-11-18T07:46:21;7.70;99.90
7143;DHT22;3613;48.902;9.204;2022-11-18T07:48:49;7.70;99.90
7143;DHT22;3613;48.902;9.204;2022-11-18T07:51:16;8.00;99.90
7143;DHT22;3613;48.902;9.204;2022-11-18T07:53:43;7.70;99.90
7143;DHT22;3613;48.902;9.204;2022-11-18T07:56:09;7.70;99.90
7143;DHT22;3613;48.902;9.204;2022-11-18T07:58:35;7.70;99.90
7143;DHT22;3613;48.902;9.204;2022-11-18T08:01:09;7.70;99.90
7143;DHT22;3613;48.902;9.204;2022-11-18T08:03:36;7.80;99.90
7143;DHT22;3613;48.902;9.204;2022-11-18T08:06:03;7.80;99.90
7143;DHT22;3613;48.902;9.204;2022-11-18T08:08:31;7.80;99.90
7143;DHT22;3613;48.902;9.204;2022-11-18T08:11:02;7.80;99.90
7143;DHT22;3613;48.902;9.204;2022-11-18T08:13:29;7.90;99.90
7143;DHT22;3613;48.902;9.204;2022-11-18T08:15:55;8.00;99.90
7143;DHT22;3613;48.902;9.204;2022-11-18T08:18:21;7.90;99.90
7143;DHT22;3613;48.902;9.204;2022-11-18T08:20:48;8.00;99.90
7143;DHT22;3613;48.902;9.204;2022-11-18T08:23:14;8.10;99.90
7143;DHT22;3613;48.902;9.204;2022-11-18T08:25:42;8.10;99.90
7143;DHT22;3613;48.902;9.204;2022-11-18T08:28:08;8.10;99.90
7143;DHT22;3613;48.902;9.204;2022-11-18T08:30:34;8.00;99.90
7143;DHT22;3613;48.902;9.204;2022-11-18T08:33:00;8.20;99.90
7143;DHT22;3613;48.902;9.204;2022-11-18T08:35:30;8.10;99.90
7143;DHT22;3613;48.902;9.204;2022-11-18T08:37:55;8.10;99.90
7143;DHT22;3613;48.902;9.204;2022-11-18T08:40:24;8.10;99.90
7143;DHT22;3613;48.902;9.204;2022-11-18T08:42:49;8.20;99.90
7143;DHT22;3613;48.902;9.204;2022-11-18T08:45:15;8.20;99.90
7143;DHT22;3613;48.902;9.204;2022-11-18T08:47:41;8.30;99.90
7143;DHT22;3613;48.902;9.204;2022-11-18T08:50:08;8.30;99.90
7143;DHT22;3613;48.902;9.204;2022-11-18T08:52:37;8.30;99.90
7143;DHT22;3613;48.902;9.204;2022-11-18T08:55:03;8.30;99.90
7143;DHT22;3613;48.902;9.204;2022-11-18T08:57:34;8.40;99.90
7143;DHT22;3613;48.902;9.204;2022-11-18T09:00:02;8.30;99.90
7143;DHT22;3613;48.902;9.204;2022-11-18T09:02:28;8.40;99.90
7143;DHT22;3613;48.902;9.204;2022-11-18T09:04:56;8.50;99.90
7143;DHT22;3613;48.902;9.204;2022-11-18T09:07:22;8.50;99.90
7143;DHT22;3613;48.902;9.204;2022-11-18T09:09:50;8.50;99.90
7143;DHT22;3613;48.902;9.204;2022-11-18T09:12:16;8.60;99.90
7143;DHT22;3613;48.902;9.204;2022-11-18T09:14:47;8.50;99.90
7143;DHT22;3613;48.902;9.204;2022-11-18T09:17:13;8.60;99.90
7143;DHT22;3613;48.902;9.204;2022-11-18T09:19:40;8.60;99.90
7143;DHT22;3613;48.902;9.204;2022-11-18T09:22:08;8.60;99.90
7143;DHT22;3613;48.902;9.204;2022-11-18T09:24:34;8.60;99.90
7143;DHT22;3613;48.902;9.204;2022-11-18T09:27:04;8.60;99.90
7143;DHT22;3613;48.902;9.204;2022-11-18T09:29:30;8.70;99.90
7143;DHT22;3613;48.902;9.204;2022-11-18T09:31:56;8.80;99.90
7143;DHT22;3613;48.902;9.204;2022-11-18T09:34:25;8.70;99.90
7143;DHT22;3613;48.902;9.204;2022-11-18T09:36:53;8.70;99.90
7143;DHT22;3613;48.902;9.204;2022-11-18T09:39:24;8.90;99.90
7143;DHT22;3613;48.902;9.204;2022-11-18T09:47:24;8.80;99.90
7143;DHT22;3613;48.902;9.204;2022-11-18T09:49:53;8.80;99.90
7143;DHT22;3613;48.902;9.204;2022-11-18T09:55:05;8.80;99.90
7143;DHT22;3613;48.902;9.204;2022-11-18T09:57:53;8.80;99.90
7143;DHT22;3613;48.902;9.204;2022-11-18T10:00:24;8.80;99.90
7143;DHT22;3613;48.902;9.204;2022-11-18T10:03:03;8.90;99.90
7143;DHT22;3613;48.902;9.204;2022-11-18T10:05:48;9.00;99.90
7143;DHT22;3613;48.902;9.204;2022-11-18T10:08:30;8.90;99.90
7143;DHT22;3613;48.902;9.204;2022-11-18T10:11:18;8.90;99.90
7143;DHT22;3613;48.902;9.204;2022-11-18T10:13:59;8.90;99.90
7143;DHT22;3613;48.902;9.204;2022-11-18T10:24:18;9.20;99.90
7143;DHT22;3613;48.902;9.204;2022-11-18T10:26:44;9.70;99.90
7143;DHT22;3613;48.902;9.204;2022-11-18T10:29:10;9.30;99.90
7143;DHT22;3613;48.902;9.204;2022-11-18T10:34:24;9.70;99.90
7143;DHT22;3613;48.902;9.204;2022-11-18T10:37:26;9.80;99.90
7143;DHT22;3613;48.902;9.204;2022-11-18T10:39:53;10.00;99.90
7143;DHT22;3613;48.902;9.204;2022-11-18T10:42:34;10.00;99.90
7143;DHT22;3613;48.902;9.204;2022-11-18T10:45:30;10.00;99.90
7143;DHT22;3613;48.902;9.204;2022-11-18T10:50:31;9.90;99.90
7143;DHT22;3613;48.902;9.204;2022-11-18T10:52:57;10.00;99.90
7143;DHT22;3613;48.902;9.204;2022-11-18T10:55:27;10.10;99.90
7143;DHT22;3613;48.902;9.204;2022-11-18T10:58:08;10.10;99.90
7143;DHT22;3613;48.902;9.204;2022-11-18T11:00:38;10.10;99.90
7143;DHT22;3613;48.902;9.204;2022-11-18T11:03:26;10.20;99.90
7143;DHT22;3613;48.902;9.204;2022-11-18T11:06:26;10.20;99.90
7143;DHT22;3613;48.902;9.204;2022-11-18T11:09:06;10.10;99.90
7143;DHT22;3613;48.902;9.204;2022-11-18T11:11:59;9.90;99.90
7143;DHT22;3613;48.902;9.204;2022-11-18T11:19:37;9.90;99.90
7143;DHT22;3613;48.902;9.204;2022-11-18T11:22:10;9.80;99.90
7143;DHT22;3613;48.902;9.204;2022-11-18T11:24:38;9.80;99.90
7143;DHT22;3613;48.902;9.204;2022-11-18T11:27:06;9.70;99.90
7143;DHT22;3613;48.902;9.204;2022-11-18T11:30:36;9.70;99.90
7143;DHT22;3613;48.902;9.204;2022-11-18T11:32:51;9.70;99.90
7143;DHT22;3613;48.902;9.204;2022-11-18T11:35:27;9.70;99.90
7143;DHT22;3613;48.902;9.204;2022-11-18T11:38:34;9.80;99.90
7143;DHT22;3613;48.902;9.204;2022-11-18T11:41:19;9.90;99.90
7143;DHT22;3613;48.902;9.204;2022-11-18T11:44:21;9.90;99.90
7143;DHT22;3613;48.902;9.204;2022-11-18T11:49:52;10.40;99.90
7143;DHT22;3613;48.902;9.204;2022-11-18T11:57:53;10.70;99.90
7143;DHT22;3613;48.902;9.204;2022-11-18T12:00:21;11.00;99.90
7143;DHT22;3613;48.902;9.204;2022-11-18T12:05:41;10.60;99.90
7143;DHT22;3613;48.902;9.204;2022-11-18T12:08:13;10.50;99.90
7143;DHT22;3613;48.902;9.204;2022-11-18T12:14:38;10.50;99.90
7143;DHT22;3613;48.902;9.204;2022-11-18T12:19:20;10.60;99.90
7143;DHT22;3613;48.902;9.204;2022-11-18T12:24:32;10.70;99.90
7143;DHT22;3613;48.902;9.204;2022-11-18T12:37:58;11.20;99.90
7143;DHT22;3613;48.902;9.204;2022-11-18T12:42:56;11.10;99.90
7143;DHT22;3613;48.902;9.204;2022-11-18T12:53:49;11.60;99.90
7143;DHT22;3613;48.902;9.204;2022-11-18T13:01:17;11.30;99.90
7143;DHT22;3613;48.902;9.204;2022-11-18T13:03:43;11.10;99.90
7143;DHT22;3613;48.902;9.204;2022-11-18T13:06:22;11.30;99.90
7143;DHT22;3613;48.902;9.204;2022-11-18T13:08:54;11.00;99.90
7143;DHT22;3613;48.902;9.204;2022-11-18T13:11:21;11.00;99.90
7143;DHT22;3613;48.902;9.204;2022-11-18T13:14:17;10.90;99.90
7143;DHT22;3613;48.902;9.204;2022-11-18T13:17:01;10.80;99.90
7143;DHT22;3613;48.902;9.204;2022-11-18T13:19:56;10.90;99.90
7143;DHT22;3613;48.902;9.204;2022-11-18T13:22:22;10.70;99.90
7143;DHT22;3613;48.902;9.204;2022-11-18T13:25:22;10.60;99.90
7143;DHT22;3613;48.902;9.204;2022-11-18T13:28:22;10.50;99.90
7143;DHT22;3613;48.902;9.204;2022-11-18T13:30:58;10.40;99.90
7143;DHT22;3613;48.902;9.204;2022-11-18T13:33:26;10.50;99.90
7143;DHT22;3613;48.902;9.204;2022-11-18T13:35:55;10.40;99.90
7143;DHT22;3613;48.902;9.204;2022-11-18T13:38:23;10.30;99.90
7143;DHT22;3613;48.902;9.204;2022-11-18T13:40:51;10.30;99.90
7143;DHT22;3613;48.902;9.204;2022-11-18T13:43:32;10.30;99.90
7143;DHT22;3613;48.902;9.204;2022-11-18T13:46:04;10.20;99.90
7143;DHT22;3613;48.902;9.204;2022-11-18T13:48:34;10.10;99.90
7143;DHT22;3613;48.902;9.204;2022-11-18T13:51:01;10.00;99.90
7143;DHT22;3613;48.902;9.204;2022-11-18T13:53:36;10.00;99.90
7143;DHT22;3613;48.902;9.204;2022-11-18T13:56:06;10.10;99.90
7143;DHT22;3613;48.902;9.204;2022-11-18T13:58:44;10.40;99.90
7143;DHT22;3613;48.902;9.204;2022-11-18T14:01:19;10.70;99.90
7143;DHT22;3613;48.902;9.204;2022-11-18T14:06:34;10.50;99.90
7143;DHT22;3613;48.902;9.204;2022-11-18T14:14:33;9.70;99.90
7143;DHT22;3613;48.902;9.204;2022-11-18T14:17:22;9.50;99.90
7143;DHT22;3613;48.902;9.204;2022-11-18T14:19:52;9.20;99.90
7143;DHT22;3613;48.902;9.204;2022-11-18T14:22:22;9.00;99.90
7143;DHT22;3613;48.902;9.204;2022-11-18T14:25:13;8.90;99.90
7143;DHT22;3613;48.902;9.204;2022-11-18T14:27:47;8.80;99.90
7143;DHT22;3613;48.902;9.204;2022-11-18T14:30:34;8.70;99.90
7143;DHT22;3613;48.902;9.204;2022-11-18T14:33:21;8.60;99.90
7143;DHT22;3613;48.902;9.204;2022-11-18T14:41:08;8.80;99.90
7143;DHT22;3613;48.902;9.204;2022-11-18T14:43:35;9.00;99.90
7143;DHT22;3613;48.902;9.204;2022-11-18T14:46:06;9.10;99.90
7143;DHT22;3613;48.902;9.204;2022-11-18T14:48:35;9.20;99.90
7143;DHT22;3613;48.902;9.204;2022-11-18T14:51:03;9.30;99.90
7143;DHT22;3613;48.902;9.204;2022-11-18T14:53:29;9.30;99.90
7143;DHT22;3613;48.902;9.204;2022-11-18T14:55:56;9.30;99.90
7143;DHT22;3613;48.902;9.204;2022-11-18T14:58:25;9.40;99.90
7143;DHT22;3613;48.902;9.204;2022-11-18T15:00:50;9.30;99.90
7143;DHT22;3613;48.902;9.204;2022-11-18T15:03:21;9.30;99.90
7143;DHT22;3613;48.902;9.204;2022-11-18T15:05:46;9.40;99.90
7143;DHT22;3613;48.902;9.204;2022-11-18T15:08:12;9.40;99.90
7143;DHT22;3613;48.902;9.204;2022-11-18T15:10:38;9.50;99.90
7143;DHT22;3613;48.902;9.204;2022-11-18T15:13:03;9.30;99.90
7143;DHT22;3613;48.902;9.204;2022-11-18T15:15:32;9.20;99.90
7143;DHT22;3613;48.902;9.204;2022-11-18T15:17:57;9.40;99.90
7143;DHT22;3613;48.902;9.204;2022-11-18T15:20:23;9.10;99.90
7143;DHT22;3613;48.902;9.204;2022-11-18T15:22:51;9.30;99.90
7143;DHT22;3613;48.902;9.204;2022-11-18T15:25:17;9.10;99.90
7143;DHT22;3613;48.902;9.204;2022-11-18T15:27:42;9.10;99.90
7143;DHT22;3613;48.902;9.204;2022-11-18T15:30:11;9.10;99.90
7143;DHT22;3613;48.902;9.204;2022-11-18T15:32:42;8.90;99.90
7143;DHT22;3613;48.902;9.204;2022-11-18T15:35:10;8.80;99.90
7143;DHT22;3613;48.902;9.204;2022-11-18T15:37:38;8.80;99.90
7143;DHT22;3613;48.902;9.204;2022-11-18T15:40:04;8.70;99.90
7143;DHT22;3613;48.902;9.204;2022-11-18T15:42:33;8.70;99.90
7143;DHT22;3613;48.902;9.204;2022-11-18T15:44:59;8.70;99.90
7143;DHT22;3613;48.902;9.204;2022-11-18T15:47:27;8.70;99.90
7143;DHT22;3613;48.902;9.204;2022-11-18T15:49:55;8.80;99.90
7143;DHT22;3613;48.902;9.204;2022-11-18T15:52:21;8.70;99.90
7143;DHT22;3613;48.902;9.204;2022-11-18T15:54:47;8.70;99.90
7143;DHT22;3613;48.902;9.204;2022-11-18T15:57:15;8.60;99.90
7143;DHT22;3613;48.902;9.204;2022-11-18T15:59:43;8.50;99.90
7143;DHT22;3613;48.902;9.204;2022-11-18T16:02:11;8.50;99.90
7143;DHT22;3613;48.902;9.204;2022-11-18T16:04:37;8.40;99.90
7143;DHT22;3613;48.902;9.204;2022-11-18T16:07:02;8.30;99.90
7143;DHT22;3613;48.902;9.204;2022-11-18T16:09:29;8.30;99.90
7143;DHT22;3613;48.902;9.204;2022-11-18T16:12:15;8.30;99.90
7143;DHT22;3613;48.902;9.204;2022-11-18T16:14:59;8.30;99.90
7143;DHT22;3613;48.902;9.204;2022-11-18T16:17:43;8.20;99.90
7143;DHT22;3613;48.902;9.204;2022-11-18T16:20:09;8.20;99.90
7143;DHT22;3613;48.902;9.204;2022-11-18T16:22:37;8.20;99.90
7143;DHT22;3613;48.902;9.204;2022-11-18T16:25:02;10.90;99.90
7143;DHT22;3613;48.902;9.204;2022-11-18T16:27:31;8.30;99.90
7143;DHT22;3613;48.902;9.204;2022-11-18T16:29:56;8.30;99.90
7143;DHT22;3613;48.902;9.204;2022-11-18T16:32:22;8.20;99.90
7143;DHT22;3613;48.902;9.204;2022-11-18T16:34:47;8.20;99.90
7143;DHT22;3613;48.902;9.204;2022-11-18T16:37:15;8.20;99.90
7143;DHT22;3613;48.902;9.204;2022-11-18T16:39:41;8.20;99.90
7143;DHT22;3613;48.902;9.204;2022-11-18T16:42:10;8.20;99.90
7143;DHT22;3613;48.902;9.204;2022-11-18T16:44:36;8.10;99.90
7143;DHT22;3613;48.902;9.204;2022-11-18T16:47:03;8.10;99.90
7143;DHT22;3613;48.902;9.204;2022-11-18T16:49:31;8.00;99.90
7143;DHT22;3613;48.902;9.204;2022-11-18T16:51:59;8.10;99.90
7143;DHT22;3613;48.902;9.204;2022-11-18T16:54:26;8.00;99.90
7143;DHT22;3613;48.902;9.204;2022-11-18T16:56:54;8.00;99.90
7143;DHT22;3613;48.902;9.204;2022-11-18T16:59:22;7.90;99.90
7143;DHT22;3613;48.902;9.204;2022-11-18T17:01:49;7.90;99.90
7143;DHT22;3613;48.902;9.204;2022-11-18T17:04:15;7.90;99.90
7143;DHT22;3613;48.902;9.204;2022-11-18T17:06:41;7.90;99.90
7143;DHT22;3613;48.902;9.204;2022-11-18T17:09:12;7.90;99.90
7143;DHT22;3613;48.902;9.204;2022-11-18T17:11:37;7.90;99.90
7143;DHT22;3613;48.902;9.204;2022-11-18T17:14:03;7.90;99.90
7143;DHT22;3613;48.902;9.204;2022-11-18T17:16:28;7.90;99.90
7143;DHT22;3613;48.902;9.204;2022-11-18T17:18:55;7.90;99.90
7143;DHT22;3613;48.902;9.204;2022-11-18T17:21:21;8.00;99.90
7143;DHT22;3613;48.902;9.204;2022-11-18T17:23:48;8.00;99.90
7143;DHT22;3613;48.902;9.204;2022-11-18T17:26:15;8.10;99.90
7143;DHT22;3613;48.902;9.204;2022-11-18T17:28:44;7.90;99.90
7143;DHT22;3613;48.902;9.204;2022-11-18T17:31:18;7.90;99.90
7143;DHT22;3613;48.902;9.204;2022-11-18T17:33:45;7.90;99.90
7143;DHT22;3613;48.902;9.204;2022-11-18T17:36:18;7.90;99.90
7143;DHT22;3613;48.902;9.204;2022-11-18T17:38:46;7.90;99.90
7143;DHT22;3613;48.902;9.204;2022-11-18T17:41:15;8.00;99.90
7143;DHT22;3613;48.902;9.204;2022-11-18T17:44:01;8.00;99.90
7143;DHT22;3613;48.902;9.204;2022-11-18T17:46:27;7.90;99.90
7143;DHT22;3613;48.902;9.204;2022-11-18T17:48:54;8.00;99.90
7143;DHT22;3613;48.902;9.204;2022-11-18T17:51:20;8.10;99.90
7143;DHT22;3613;48.902;9.204;2022-11-18T17:53:46;8.00;99.90
7143;DHT22;3613;48.902;9.204;2022-11-18T17:56:11;8.00;99.90
7143;DHT22;3613;48.902;9.204;2022-11-18T17:58:37;8.00;99.90
7143;DHT22;3613;48.902;9.204;2022-11-18T18:01:10;8.00;99.90
7143;DHT22;3613;48.902;9.204;2022-11-18T18:03:36;8.00;99.90
7143;DHT22;3613;48.902;9.204;2022-11-18T18:06:04;8.00;99.90
7143;DHT22;3613;48.902;9.204;2022-11-18T18:08:31;8.00;99.90
7143;DHT22;3613;48.902;9.204;2022-11-18T18:11:17;8.00;99.90
7143;DHT22;3613;48.902;9.204;2022-11-18T18:13:45;8.00;99.90
7143;DHT22;3613;48.902;9.204;2022-11-18T18:16:33;8.00;99.90
7143;DHT22;3613;48.902;9.204;2022-11-18T18:19:00;8.00;99.90
7143;DHT22;3613;48.902;9.204;2022-11-18T18:21:27;8.10;99.90
7143;DHT22;3613;48.902;9.204;2022-11-18T18:23:54;8.20;99.90
7143;DHT22;3613;48.902;9.204;2022-11-18T18:26:20;8.10;99.90
7143;DHT22;3613;48.902;9.204;2022-11-18T18:28:46;8.20;99.90
7143;DHT22;3613;48.902;9.204;2022-11-18T18:31:16;8.10;99.90
7143;DHT22;3613;48.902;9.204;2022-11-18T18:33:42;8.20;99.90
7143;DHT22;3613;48.902;9.204;2022-11-18T18:36:14;8.20;99.90
7143;DHT22;3613;48.902;9.204;2022-11-18T18:38:42;8.20;99.90
7143;DHT22;3613;48.902;9.204;2022-11-18T18:41:19;8.20;99.90
7143;DHT22;3613;48.902;9.204;2022-11-18T18:43:44;8.10;99.90
7143;DHT22;3613;48.902;9.204;2022-11-18T18:46:21;8.10;99.90